sensor_id;sensor_type;location;lat;lon;timestamp;temperature;humidity
22192;DHT22;11261;52.456;10.850;2024-01-07T00:02:00;-0.40;99.90
22192;DHT22;11261;52.456;10.850;2024-01-07T00:04:29;-0.40;99.90
22192;DHT22;11261;52.456;10.850;2024-01-07T00:06:58;-0.40;99.90
22192;DHT22;11261;52.456;10.850;2024-01-07T00:09:26;-0.40;99.90
22192;DHT22;11261;52.456;10.850;2024-01-07T00:11:55;-0.40;99.90
22192;DHT22;11261;52.456;10.850;2024-01-07T00:14:25;-0.50;99.90
22192;DHT22;11261;52.456;10.850;2024-01-07T00:16:53;-0.40;99.90
22192;DHT22;11261;52.456;10.850;2024-01-07T00:19:21;-0.40;99.90
22192;DHT22;11261;52.456;10.850;2024-01-07T00:21:51;-0.40;99.90
22192;DHT22;11261;52.456;10.850;2024-01-07T00:24:20;-0.40;99.90
22192;DHT22;11261;52.456;10.850;2024-01-07T00:26:48;-0.40;99.90
22192;DHT22;11261;52.456;10.850;2024-01-07T00:29:17;-0.40;99.90
22192;DHT22;11261;52.456;10.850;2024-01-07T00:31:46;-0.40;99.90
22192;DHT22;11261;52.456;10.850;2024-01-07T00:34:15;-0.50;99.90
22192;DHT22;11261;52.456;10.850;2024-01-07T00:36:43;-0.50;99.90
22192;DHT22;11261;52.456;10.850;2024-01-07T00:39:12;-0.50;99.90
22192;DHT22;11261;52.456;10.850;2024-01-07T00:41:40;-0.50;99.90
22192;DHT22;11261;52.456;10.850;2024-01-07T00:44:08;-0.60;99.90
22192;DHT22;11261;52.456;10.850;2024-01-07T00:46:37;-0.60;99.90
22192;DHT22;11261;52.456;10.850;2024-01-07T00:49:07;-0.60;99.90
22192;DHT22;11261;52.456;10.850;2024-01-07T00:51:36;-0.60;99.90
22192;DHT22;11261;52.456;10.850;2024-01-07T00:54:05;-0.60;99.90
22192;DHT22;11261;52.456;10.850;2024-01-07T00:56:33;-0.60;99.90
22192;DHT22;11261;52.456;10.850;2024-01-07T00:59:02;-0.60;99.90
22192;DHT22;11261;52.456;10.850;2024-01-07T01:01:30;-0.70;99.90
22192;DHT22;11261;52.456;10.850;2024-01-07T01:03:59;-0.70;99.90
22192;DHT22;11261;52.456;10.850;2024-01-07T01:06:29;-0.70;99.90
22192;DHT22;11261;52.456;10.850;2024-01-07T01:08:58;-0.70;99.90
22192;DHT22;11261;52.456;10.850;2024-01-07T01:11:26;-0.60;99.90
22192;DHT22;11261;52.456;10.850;2024-01-07T01:13:55;-0.60;99.90
22192;DHT22;11261;52.456;10.850;2024-01-07T01:16:23;-0.60;99.90
22192;DHT22;11261;52.456;10.850;2024-01-07T01:18:52;-0.70;99.90
22192;DHT22;11261;52.456;10.850;2024-01-07T01:21:20;-0.70;99.90
22192;DHT22;11261;52.456;10.850;2024-01-07T01:23:51;-0.70;99.90
22192;DHT22;11261;52.456;10.850;2024-01-07T01:26:19;-0.60;99.90
22192;DHT22;11261;52.456;10.850;2024-01-07T01:28:48;-0.70;99.90
22192;DHT22;11261;52.456;10.850;2024-01-07T01:31:17;-0.60;99.90
22192;DHT22;11261;52.456;10.850;2024-01-07T01:33:46;-0.60;99.90
22192;DHT22;11261;52.456;10.850;2024-01-07T01:36:14;-0.70;99.90
22192;DHT22;11261;52.456;10.850;2024-01-07T01:38:43;-0.60;99.90
22192;DHT22;11261;52.456;10.850;2024-01-07T01:41:12;-0.70;99.90
22192;DHT22;11261;52.456;10.850;2024-01-07T01:43:41;-0.70;99.90
22192;DHT22;11261;52.456;10.850;2024-01-07T01:46:10;-0.70;99.90
22192;DHT22;11261;52.456;10.850;2024-01-07T01:48:38;-0.70;99.90
22192;DHT22;11261;52.456;10.850;2024-01-07T01:51:08;-0.70;99.90
22192;DHT22;11261;52.456;10.850;2024-01-07T01:53:38;-0.70;99.90
22192;DHT22;11261;52.456;10.850;2024-01-07T01:56:07;-0.70;99.90
22192;DHT22;11261;52.456;10.850;2024-01-07T01:58:37;-0.70;99.90
22192;DHT22;11261;52.456;10.850;2024-01-07T02:01:05;-0.70;99.90
22192;DHT22;11261;52.456;10.850;2024-01-07T02:03:34;-0.70;99.90
22192;DHT22;11261;52.456;10.850;2024-01-07T02:06:03;-0.70;99.90
22192;DHT22;11261;52.456;10.850;2024-01-07T02:08:32;-0.70;99.90
22192;DHT22;11261;52.456;10.850;2024-01-07T02:11:14;-0.70;99.90
22192;DHT22;11261;52.456;10.850;2024-01-07T02:13:45;-0.70;99.90
22192;DHT22;11261;52.456;10.850;2024-01-07T02:16:14;-0.70;99.90
22192;DHT22;11261;52.456;10.850;2024-01-07T02:18:44;-0.70;99.90
22192;DHT22;11261;52.456;10.850;2024-01-07T02:21:14;-0.70;99.90
22192;DHT22;11261;52.456;10.850;2024-01-07T02:23:42;-0.70;99.90
22192;DHT22;11261;52.456;10.850;2024-01-07T02:26:12;-0.70;99.90
22192;DHT22;11261;52.456;10.850;2024-01-07T02:28:41;-0.70;99.90
22192;DHT22;11261;52.456;10.850;2024-01-07T02:31:09;-0.70;99.90
22192;DHT22;11261;52.456;10.850;2024-01-07T02:33:38;-0.90;99.90
22192;DHT22;11261;52.456;10.850;2024-01-07T02:36:07;-0.80;99.90
22192;DHT22;11261;52.456;10.850;2024-01-07T02:38:36;-0.70;99.90
22192;DHT22;11261;52.456;10.850;2024-01-07T02:41:05;-0.80;99.90
22192;DHT22;11261;52.456;10.850;2024-01-07T02:43:35;-0.80;99.90
22192;DHT22;11261;52.456;10.850;2024-01-07T02:46:03;-0.80;99.90
22192;DHT22;11261;52.456;10.850;2024-01-07T02:48:32;-0.80;99.90
22192;DHT22;11261;52.456;10.850;2024-01-07T02:51:01;-0.80;99.90
22192;DHT22;11261;52.456;10.850;2024-01-07T02:53:32;-0.80;99.90
22192;DHT22;11261;52.456;10.850;2024-01-07T02:56:00;-0.80;99.90
22192;DHT22;11261;52.456;10.850;2024-01-07T02:58:29;-0.90;99.90
22192;DHT22;11261;52.456;10.850;2024-01-07T03:00:59;-0.80;99.90
22192;DHT22;11261;52.456;10.850;2024-01-07T03:03:27;-0.90;99.90
22192;DHT22;11261;52.456;10.850;2024-01-07T03:05:56;-0.90;99.90
22192;DHT22;11261;52.456;10.850;2024-01-07T03:08:24;-0.80;99.90
22192;DHT22;11261;52.456;10.850;2024-01-07T03:10:53;-0.80;99.90
22192;DHT22;11261;52.456;10.850;2024-01-07T03:13:21;-0.80;99.90
22192;DHT22;11261;52.456;10.850;2024-01-07T03:15:50;-0.80;99.90
22192;DHT22;11261;52.456;10.850;2024-01-07T03:18:20;-0.80;99.90
22192;DHT22;11261;52.456;10.850;2024-01-07T03:20:49;-0.80;99.90
22192;DHT22;11261;52.456;10.850;2024-01-07T03:23:18;-0.90;99.90
22192;DHT22;11261;52.456;10.850;2024-01-07T03:25:47;-0.80;99.90
22192;DHT22;11261;52.456;10.850;2024-01-07T03:28:15;-0.80;99.90
22192;DHT22;11261;52.456;10.850;2024-01-07T03:30:44;-0.90;99.90
22192;DHT22;11261;52.456;10.850;2024-01-07T03:33:13;-0.90;99.90
22192;DHT22;11261;52.456;10.850;2024-01-07T03:35:43;-0.80;99.90
22192;DHT22;11261;52.456;10.850;2024-01-07T03:38:13;-0.90;99.90
22192;DHT22;11261;52.456;10.850;2024-01-07T03:40:41;-0.90;99.90
22192;DHT22;11261;52.456;10.850;2024-01-07T03:43:10;-0.90;99.90
22192;DHT22;11261;52.456;10.850;2024-01-07T03:45:38;-0.90;99.90
22192;DHT22;11261;52.456;10.850;2024-01-07T03:48:07;-0.90;99.90
22192;DHT22;11261;52.456;10.850;2024-01-07T03:50:36;-0.90;99.90
22192;DHT22;11261;52.456;10.850;2024-01-07T03:53:06;-0.90;99.90
22192;DHT22;11261;52.456;10.850;2024-01-07T03:55:34;-0.90;99.90
22192;DHT22;11261;52.456;10.850;2024-01-07T03:58:03;-0.90;99.90
22192;DHT22;11261;52.456;10.850;2024-01-07T04:00:32;-1.00;99.90
22192;DHT22;11261;52.456;10.850;2024-01-07T04:03:01;-1.00;99.90
22192;DHT22;11261;52.456;10.850;2024-01-07T04:05:30;-1.00;99.90
22192;DHT22;11261;52.456;10.850;2024-01-07T04:08:00;-1.00;99.90
22192;DHT22;11261;52.456;10.850;2024-01-07T04:10:30;-1.00;99.90
22192;DHT22;11261;52.456;10.850;2024-01-07T04:12:59;-1.10;99.90
22192;DHT22;11261;52.456;10.850;2024-01-07T04:15:27;-1.10;99.90
22192;DHT22;11261;52.456;10.850;2024-01-07T04:17:56;-1.10;99.90
22192;DHT22;11261;52.456;10.850;2024-01-07T04:20:24;-1.10;99.90
22192;DHT22;11261;52.456;10.850;2024-01-07T04:22:53;-1.10;99.90
22192;DHT22;11261;52.456;10.850;2024-01-07T04:25:22;-1.10;99.90
22192;DHT22;11261;52.456;10.850;2024-01-07T04:27:51;-1.10;99.90
22192;DHT22;11261;52.456;10.850;2024-01-07T04:30:20;-1.10;99.90
22192;DHT22;11261;52.456;10.850;2024-01-07T04:32:49;-1.10;99.90
22192;DHT22;11261;52.456;10.850;2024-01-07T04:35:18;-1.20;99.90
22192;DHT22;11261;52.456;10.850;2024-01-07T04:37:46;-1.20;99.90
22192;DHT22;11261;52.456;10.850;2024-01-07T04:40:15;-1.20;99.90
